Terminal Aerodrome Forecast
Issued by NWS

Home | Current Version | Previous Version | Text Only | Print | Product List | Glossary On
Versions: 1 2 3 4 5 6 7 8 9 10 11 12 13 14 15 16 17 18 19 20 21 22 23 24 25 26 27 28 29 30 31 32 33 34 35 36 37 38 39 40 41 42
495
FTAK31 PAFA 252350
TAFAGA
TAF
PAGA 252350Z 2600/2624 19016G21KT 3SM -SN BKN020 OVC030
     FM260200 21015KT 2SM -SN BR SCT007 OVC015
     FM260900 22012KT P6SM VCSH BKN020 OVC050=

USA.gov is the U.S. government's official web portal to all federal, state and local government web resources and services.